createdAt,value
2018-07-21T10:53:29.083Z,22.21
2018-07-21T10:56:03.323Z,22.22
2018-07-21T10:58:42.148Z,22.22
2018-07-21T11:01:18.284Z,22.25
2018-07-21T11:04:01.864Z,22.26
2018-07-21T11:06:36.958Z,22.25
2018-07-21T11:09:27.470Z,22.26
2018-07-21T11:12:04.748Z,22.25
2018-07-21T11:14:45.369Z,22.28
2018-07-21T11:17:37.170Z,22.31
2018-07-21T11:20:21.036Z,22.35
2018-07-21T11:22:58.003Z,22.38
2018-07-21T11:28:18.273Z,22.44
2018-07-21T11:30:57.638Z,22.49
2018-07-21T11:33:36.029Z,22.54
2018-07-21T11:36:13.927Z,22.57
2018-07-21T11:38:50.308Z,22.59
2018-07-21T11:41:33.035Z,22.61
2018-07-21T11:44:15.816Z,22.66
2018-07-21T11:49:52.707Z,22.67
2018-07-21T11:52:39.147Z,22.70
2018-07-21T11:55:18.410Z,22.70
2018-07-21T11:58:16.925Z,22.72
2018-07-21T12:03:50.562Z,22.75
2018-07-21T12:06:27.279Z,22.84
2018-07-21T12:10:21.654Z,22.88
2018-07-21T12:13:08.703Z,22.96
2018-07-21T12:21:52.756Z,22.98
2018-07-21T12:24:27.193Z,22.98
2018-07-21T12:27:05.838Z,23.00
2018-07-21T12:32:38.020Z,23.02
2018-07-21T12:35:23.524Z,23.02
2018-07-21T12:38:13.202Z,23.01
2018-07-21T12:40:53.993Z,23.05
2018-07-21T12:43:32.087Z,23.05
2018-07-21T12:49:09.869Z,23.10
2018-07-21T12:51:50.050Z,23.16
2018-07-21T12:54:36.691Z,23.20
2018-07-21T13:02:52.589Z,23.26
2018-07-21T13:05:27.029Z,23.29
2018-07-21T13:08:15.587Z,23.30
